sensor_id;sensor_type;location;lat;lon;timestamp;P1;durP1;ratioP1;P2;durP2;ratioP2
8478;SDS011;4276;49.354;6.804;2022-07-23T10:45:22;8.02;;;7.43;;
8478;SDS011;4276;49.354;6.804;2022-07-23T10:48:11;8.02;;;7.35;;
8478;SDS011;4276;49.354;6.804;2022-07-23T10:56:48;8.50;;;7.80;;
8478;SDS011;4276;49.354;6.804;2022-07-23T10:59:16;8.18;;;7.45;;
8478;SDS011;4276;49.354;6.804;2022-07-23T11:01:44;7.50;;;6.97;;
8478;SDS011;4276;49.354;6.804;2022-07-23T11:04:11;8.07;;;7.38;;
8478;SDS011;4276;49.354;6.804;2022-07-23T11:17:31;7.53;;;7.03;;
8478;SDS011;4276;49.354;6.804;2022-07-23T11:22:40;8.02;;;7.38;;
8478;SDS011;4276;49.354;6.804;2022-07-23T11:25:12;8.30;;;7.70;;
8478;SDS011;4276;49.354;6.804;2022-07-23T11:27:49;8.40;;;7.70;;
8478;SDS011;4276;49.354;6.804;2022-07-23T11:32:52;8.38;;;7.78;;
8478;SDS011;4276;49.354;6.804;2022-07-23T11:35:21;8.32;;;7.63;;
8478;SDS011;4276;49.354;6.804;2022-07-23T11:37:49;8.90;;;8.13;;
8478;SDS011;4276;49.354;6.804;2022-07-23T11:40:19;9.05;;;8.30;;
8478;SDS011;4276;49.354;6.804;2022-07-23T11:42:54;8.45;;;7.65;;
8478;SDS011;4276;49.354;6.804;2022-07-23T11:45:24;9.05;;;8.32;;
8478;SDS011;4276;49.354;6.804;2022-07-23T11:47:52;9.10;;;8.40;;
8478;SDS011;4276;49.354;6.804;2022-07-23T11:50:18;8.05;;;7.45;;
8478;SDS011;4276;49.354;6.804;2022-07-23T11:52:45;8.75;;;7.88;;
8478;SDS011;4276;49.354;6.804;2022-07-23T11:55:11;7.93;;;7.22;;
8478;SDS011;4276;49.354;6.804;2022-07-23T11:57:39;8.90;;;8.00;;
8478;SDS011;4276;49.354;6.804;2022-07-23T12:02:34;7.82;;;7.13;;
8478;SDS011;4276;49.354;6.804;2022-07-23T12:05:00;7.35;;;6.75;;
8478;SDS011;4276;49.354;6.804;2022-07-23T12:07:28;7.65;;;7.05;;
8478;SDS011;4276;49.354;6.804;2022-07-23T12:12:38;7.72;;;7.13;;
8478;SDS011;4276;49.354;6.804;2022-07-23T12:15:10;7.95;;;7.35;;
8478;SDS011;4276;49.354;6.804;2022-07-23T12:17:39;7.72;;;7.22;;
8478;SDS011;4276;49.354;6.804;2022-07-23T12:20:08;8.15;;;7.55;;
8478;SDS011;4276;49.354;6.804;2022-07-23T12:22:40;8.00;;;7.30;;
8478;SDS011;4276;49.354;6.804;2022-07-23T12:25:15;8.35;;;7.72;;
8478;SDS011;4276;49.354;6.804;2022-07-23T12:27:43;8.05;;;7.55;;
8478;SDS011;4276;49.354;6.804;2022-07-23T12:32:43;8.00;;;7.30;;
8478;SDS011;4276;49.354;6.804;2022-07-23T12:35:11;7.43;;;6.93;;
8478;SDS011;4276;49.354;6.804;2022-07-23T12:37:39;7.55;;;7.03;;
8478;SDS011;4276;49.354;6.804;2022-07-23T12:40:20;7.72;;;7.13;;
8478;SDS011;4276;49.354;6.804;2022-07-23T12:43:07;7.38;;;6.68;;
8478;SDS011;4276;49.354;6.804;2022-07-23T12:45:49;7.38;;;6.80;;
8478;SDS011;4276;49.354;6.804;2022-07-23T12:48:17;7.43;;;6.82;;
8478;SDS011;4276;49.354;6.804;2022-07-23T12:51:00;7.93;;;7.32;;
8478;SDS011;4276;49.354;6.804;2022-07-23T12:56:13;9.55;;;7.38;;
8478;SDS011;4276;49.354;6.804;2022-07-23T13:04:04;6.95;;;6.45;;
8478;SDS011;4276;49.354;6.804;2022-07-23T13:06:53;7.07;;;6.47;;
8478;SDS011;4276;49.354;6.804;2022-07-23T13:09:25;7.05;;;6.35;;
8478;SDS011;4276;49.354;6.804;2022-07-23T13:11:58;6.90;;;6.32;;
8478;SDS011;4276;49.354;6.804;2022-07-23T13:14:25;9.27;;;6.43;;
8478;SDS011;4276;49.354;6.804;2022-07-23T13:16:53;6.43;;;5.93;;
8478;SDS011;4276;49.354;6.804;2022-07-23T13:19:22;5.78;;;5.38;;
8478;SDS011;4276;49.354;6.804;2022-07-23T13:21:50;6.47;;;5.97;;
8478;SDS011;4276;49.354;6.804;2022-07-23T13:24:17;6.75;;;6.25;;
8478;SDS011;4276;49.354;6.804;2022-07-23T13:26:45;5.88;;;5.38;;
8478;SDS011;4276;49.354;6.804;2022-07-23T13:29:13;7.10;;;6.50;;
8478;SDS011;4276;49.354;6.804;2022-07-23T13:31:42;6.65;;;6.15;;
8478;SDS011;4276;49.354;6.804;2022-07-23T13:34:09;5.88;;;5.45;;
8478;SDS011;4276;49.354;6.804;2022-07-23T13:36:36;6.18;;;5.68;;
8478;SDS011;4276;49.354;6.804;2022-07-23T13:39:03;5.90;;;5.47;;
8478;SDS011;4276;49.354;6.804;2022-07-23T13:41:35;5.95;;;5.45;;
8478;SDS011;4276;49.354;6.804;2022-07-23T13:44:03;5.57;;;5.13;;
8478;SDS011;4276;49.354;6.804;2022-07-23T13:46:29;5.97;;;5.47;;
8478;SDS011;4276;49.354;6.804;2022-07-23T13:48:56;6.55;;;6.00;;
8478;SDS011;4276;49.354;6.804;2022-07-23T13:51:23;6.13;;;5.65;;
8478;SDS011;4276;49.354;6.804;2022-07-23T13:53:51;6.75;;;5.65;;
8478;SDS011;4276;49.354;6.804;2022-07-23T13:56:18;6.30;;;5.80;;
8478;SDS011;4276;49.354;6.804;2022-07-23T13:58:45;6.00;;;5.60;;
8478;SDS011;4276;49.354;6.804;2022-07-23T14:01:12;6.10;;;5.70;;
8478;SDS011;4276;49.354;6.804;2022-07-23T14:03:39;6.95;;;6.32;;
8478;SDS011;4276;49.354;6.804;2022-07-23T14:06:06;7.32;;;6.63;;
8478;SDS011;4276;49.354;6.804;2022-07-23T14:08:41;7.18;;;6.57;;
8478;SDS011;4276;49.354;6.804;2022-07-23T14:11:10;7.53;;;6.93;;
8478;SDS011;4276;49.354;6.804;2022-07-23T14:13:37;7.00;;;6.50;;
8478;SDS011;4276;49.354;6.804;2022-07-23T14:16:04;7.35;;;6.75;;
8478;SDS011;4276;49.354;6.804;2022-07-23T14:18:31;7.28;;;6.68;;
8478;SDS011;4276;49.354;6.804;2022-07-23T14:20:59;7.60;;;6.90;;
8478;SDS011;4276;49.354;6.804;2022-07-23T14:23:27;7.03;;;6.63;;
8478;SDS011;4276;49.354;6.804;2022-07-23T14:25:54;7.55;;;6.95;;
8478;SDS011;4276;49.354;6.804;2022-07-23T14:28:20;7.15;;;6.65;;
8478;SDS011;4276;49.354;6.804;2022-07-23T14:30:47;6.95;;;6.35;;
8478;SDS011;4276;49.354;6.804;2022-07-23T14:33:13;7.45;;;6.82;;
8478;SDS011;4276;49.354;6.804;2022-07-23T14:35:42;7.65;;;7.05;;
8478;SDS011;4276;49.354;6.804;2022-07-23T14:38:09;7.43;;;6.82;;
8478;SDS011;4276;49.354;6.804;2022-07-23T14:40:39;7.57;;;6.97;;
8478;SDS011;4276;49.354;6.804;2022-07-23T14:43:05;7.50;;;6.90;;
8478;SDS011;4276;49.354;6.804;2022-07-23T14:45:52;8.15;;;7.35;;
8478;SDS011;4276;49.354;6.804;2022-07-23T14:48:18;8.40;;;7.63;;
8478;SDS011;4276;49.354;6.804;2022-07-23T14:50:46;6.72;;;6.18;;
8478;SDS011;4276;49.354;6.804;2022-07-23T14:53:13;7.65;;;6.95;;
8478;SDS011;4276;49.354;6.804;2022-07-23T14:55:48;8.13;;;7.53;;
8478;SDS011;4276;49.354;6.804;2022-07-23T14:58:14;6.90;;;6.40;;
8478;SDS011;4276;49.354;6.804;2022-07-23T15:00:41;7.38;;;6.75;;
8478;SDS011;4276;49.354;6.804;2022-07-23T15:03:10;6.85;;;6.35;;
8478;SDS011;4276;49.354;6.804;2022-07-23T15:05:38;7.90;;;7.30;;
8478;SDS011;4276;49.354;6.804;2022-07-23T15:08:05;7.45;;;6.85;;
8478;SDS011;4276;49.354;6.804;2022-07-23T15:10:34;7.43;;;6.93;;
8478;SDS011;4276;49.354;6.804;2022-07-23T15:13:02;7.50;;;7.00;;
8478;SDS011;4276;49.354;6.804;2022-07-23T15:15:29;7.82;;;7.32;;
8478;SDS011;4276;49.354;6.804;2022-07-23T15:17:57;8.38;;;7.72;;
8478;SDS011;4276;49.354;6.804;2022-07-23T15:20:24;8.50;;;7.80;;
8478;SDS011;4276;49.354;6.804;2022-07-23T15:23:06;7.45;;;6.85;;
8478;SDS011;4276;49.354;6.804;2022-07-23T15:25:35;7.40;;;6.80;;
8478;SDS011;4276;49.354;6.804;2022-07-23T15:28:03;7.80;;;7.20;;
8478;SDS011;4276;49.354;6.804;2022-07-23T15:30:33;8.43;;;7.63;;
8478;SDS011;4276;49.354;6.804;2022-07-23T15:32:59;8.07;;;7.47;;
8478;SDS011;4276;49.354;6.804;2022-07-23T15:35:26;8.32;;;7.68;;
8478;SDS011;4276;49.354;6.804;2022-07-23T15:37:52;7.43;;;6.82;;
8478;SDS011;4276;49.354;6.804;2022-07-23T15:40:19;8.45;;;7.65;;
8478;SDS011;4276;49.354;6.804;2022-07-23T15:42:46;8.65;;;7.85;;
8478;SDS011;4276;49.354;6.804;2022-07-23T15:45:12;7.82;;;7.18;;
8478;SDS011;4276;49.354;6.804;2022-07-23T15:47:40;8.35;;;7.75;;
8478;SDS011;4276;49.354;6.804;2022-07-23T15:50:08;7.50;;;7.00;;
8478;SDS011;4276;49.354;6.804;2022-07-23T15:52:36;7.60;;;7.00;;
8478;SDS011;4276;49.354;6.804;2022-07-23T15:55:04;8.57;;;7.68;;
8478;SDS011;4276;49.354;6.804;2022-07-23T15:57:42;7.43;;;6.72;;
8478;SDS011;4276;49.354;6.804;2022-07-23T16:00:10;7.68;;;7.10;;
8478;SDS011;4276;49.354;6.804;2022-07-23T16:02:37;7.53;;;6.93;;
8478;SDS011;4276;49.354;6.804;2022-07-23T16:05:04;8.27;;;7.68;;
8478;SDS011;4276;49.354;6.804;2022-07-23T16:07:31;7.57;;;7.00;;
8478;SDS011;4276;49.354;6.804;2022-07-23T16:10:05;7.38;;;6.78;;
8478;SDS011;4276;49.354;6.804;2022-07-23T16:12:33;7.65;;;6.95;;
8478;SDS011;4276;49.354;6.804;2022-07-23T16:14:59;7.50;;;6.80;;
8478;SDS011;4276;49.354;6.804;2022-07-23T16:17:32;7.35;;;6.85;;
8478;SDS011;4276;49.354;6.804;2022-07-23T16:19:59;6.68;;;6.18;;
8478;SDS011;4276;49.354;6.804;2022-07-23T16:22:26;7.22;;;6.72;;
8478;SDS011;4276;49.354;6.804;2022-07-23T16:24:52;7.50;;;7.00;;
8478;SDS011;4276;49.354;6.804;2022-07-23T16:27:19;7.07;;;6.57;;
8478;SDS011;4276;49.354;6.804;2022-07-23T16:29:45;7.15;;;6.65;;
8478;SDS011;4276;49.354;6.804;2022-07-23T16:32:12;7.00;;;6.50;;
8478;SDS011;4276;49.354;6.804;2022-07-23T16:34:40;7.15;;;6.57;;
8478;SDS011;4276;49.354;6.804;2022-07-23T16:37:10;7.32;;;6.68;;
8478;SDS011;4276;49.354;6.804;2022-07-23T16:39:37;6.93;;;6.32;;
8478;SDS011;4276;49.354;6.804;2022-07-23T16:42:03;6.97;;;6.25;;
8478;SDS011;4276;49.354;6.804;2022-07-23T16:44:31;7.03;;;6.47;;
8478;SDS011;4276;49.354;6.804;2022-07-23T16:46:57;7.38;;;6.78;;
8478;SDS011;4276;49.354;6.804;2022-07-23T16:49:24;7.97;;;7.28;;
8478;SDS011;4276;49.354;6.804;2022-07-23T16:51:50;8.07;;;7.47;;
8478;SDS011;4276;49.354;6.804;2022-07-23T16:54:17;8.02;;;7.38;;
8478;SDS011;4276;49.354;6.804;2022-07-23T16:56:46;8.32;;;7.72;;
8478;SDS011;4276;49.354;6.804;2022-07-23T16:59:13;8.27;;;7.63;;
8478;SDS011;4276;49.354;6.804;2022-07-23T17:01:40;7.75;;;7.15;;
8478;SDS011;4276;49.354;6.804;2022-07-23T17:04:06;7.18;;;6.63;;
8478;SDS011;4276;49.354;6.804;2022-07-23T17:06:33;7.38;;;6.85;;
8478;SDS011;4276;49.354;6.804;2022-07-23T17:09:01;7.82;;;7.22;;
8478;SDS011;4276;49.354;6.804;2022-07-23T17:11:32;7.53;;;6.90;;
8478;SDS011;4276;49.354;6.804;2022-07-23T17:13:59;7.00;;;6.45;;
8478;SDS011;4276;49.354;6.804;2022-07-23T17:16:25;7.93;;;7.28;;
8478;SDS011;4276;49.354;6.804;2022-07-23T17:18:52;7.63;;;7.07;;
8478;SDS011;4276;49.354;6.804;2022-07-23T17:21:19;7.68;;;7.07;;
8478;SDS011;4276;49.354;6.804;2022-07-23T17:23:45;7.70;;;7.15;;
8478;SDS011;4276;49.354;6.804;2022-07-23T17:26:12;7.80;;;7.20;;
8478;SDS011;4276;49.354;6.804;2022-07-23T17:28:41;7.85;;;7.13;;
8478;SDS011;4276;49.354;6.804;2022-07-23T17:31:09;7.75;;;7.05;;
8478;SDS011;4276;49.354;6.804;2022-07-23T17:33:37;7.60;;;6.78;;
8478;SDS011;4276;49.354;6.804;2022-07-23T17:36:04;7.47;;;6.88;;
8478;SDS011;4276;49.354;6.804;2022-07-23T17:38:31;7.13;;;6.63;;
8478;SDS011;4276;49.354;6.804;2022-07-23T17:40:57;6.63;;;6.22;;
8478;SDS011;4276;49.354;6.804;2022-07-23T17:43:24;7.50;;;6.90;;
8478;SDS011;4276;49.354;6.804;2022-07-23T17:45:50;7.07;;;6.57;;
8478;SDS011;4276;49.354;6.804;2022-07-23T17:48:17;7.10;;;6.50;;
8478;SDS011;4276;49.354;6.804;2022-07-23T17:50:43;7.30;;;6.70;;
8478;SDS011;4276;49.354;6.804;2022-07-23T17:53:10;8.07;;;7.38;;
8478;SDS011;4276;49.354;6.804;2022-07-23T17:55:36;12.25;;;10.77;;
8478;SDS011;4276;49.354;6.804;2022-07-23T17:58:03;9.73;;;8.82;;
8478;SDS011;4276;49.354;6.804;2022-07-23T18:00:31;10.52;;;9.35;;
8478;SDS011;4276;49.354;6.804;2022-07-23T18:02:59;10.90;;;9.93;;
8478;SDS011;4276;49.354;6.804;2022-07-23T18:05:32;7.93;;;7.32;;
8478;SDS011;4276;49.354;6.804;2022-07-23T18:07:59;7.00;;;6.50;;
8478;SDS011;4276;49.354;6.804;2022-07-23T18:10:25;6.70;;;6.10;;
8478;SDS011;4276;49.354;6.804;2022-07-23T18:12:52;6.80;;;6.35;;
8478;SDS011;4276;49.354;6.804;2022-07-23T18:15:18;7.32;;;6.72;;
8478;SDS011;4276;49.354;6.804;2022-07-23T18:17:45;7.30;;;6.70;;
8478;SDS011;4276;49.354;6.804;2022-07-23T18:20:11;6.85;;;6.28;;
8478;SDS011;4276;49.354;6.804;2022-07-23T18:22:38;7.38;;;6.90;;
8478;SDS011;4276;49.354;6.804;2022-07-23T18:25:05;8.55;;;7.82;;
8478;SDS011;4276;49.354;6.804;2022-07-23T18:27:33;9.85;;;8.95;;
8478;SDS011;4276;49.354;6.804;2022-07-23T18:30:00;11.70;;;9.30;;
8478;SDS011;4276;49.354;6.804;2022-07-23T18:32:26;9.45;;;8.38;;
8478;SDS011;4276;49.354;6.804;2022-07-23T18:34:53;8.75;;;7.93;;
8478;SDS011;4276;49.354;6.804;2022-07-23T18:37:23;8.48;;;7.70;;
8478;SDS011;4276;49.354;6.804;2022-07-23T18:40:02;8.07;;;7.30;;
8478;SDS011;4276;49.354;6.804;2022-07-23T18:42:30;8.32;;;7.53;;
8478;SDS011;4276;49.354;6.804;2022-07-23T18:44:57;7.60;;;7.00;;
8478;SDS011;4276;49.354;6.804;2022-07-23T18:47:29;7.63;;;7.07;;
8478;SDS011;4276;49.354;6.804;2022-07-23T18:49:56;8.00;;;7.07;;
8478;SDS011;4276;49.354;6.804;2022-07-23T18:52:23;7.88;;;6.97;;
8478;SDS011;4276;49.354;6.804;2022-07-23T18:54:49;7.50;;;6.90;;
8478;SDS011;4276;49.354;6.804;2022-07-23T18:57:16;7.38;;;6.82;;
8478;SDS011;4276;49.354;6.804;2022-07-23T18:59:43;7.60;;;6.90;;
8478;SDS011;4276;49.354;6.804;2022-07-23T19:02:12;7.07;;;6.40;;
8478;SDS011;4276;49.354;6.804;2022-07-23T19:04:40;7.32;;;6.72;;
8478;SDS011;4276;49.354;6.804;2022-07-23T19:07:07;7.38;;;6.65;;
8478;SDS011;4276;49.354;6.804;2022-07-23T19:09:33;7.22;;;6.63;;
8478;SDS011;4276;49.354;6.804;2022-07-23T19:12:01;8.30;;;6.20;;
8478;SDS011;4276;49.354;6.804;2022-07-23T19:14:28;10.77;;;7.13;;
8478;SDS011;4276;49.354;6.804;2022-07-23T19:16:54;7.15;;;6.65;;
8478;SDS011;4276;49.354;6.804;2022-07-23T19:19:21;6.95;;;6.35;;
8478;SDS011;4276;49.354;6.804;2022-07-23T19:21:48;8.00;;;7.28;;
8478;SDS011;4276;49.354;6.804;2022-07-23T19:24:15;7.38;;;6.88;;
8478;SDS011;4276;49.354;6.804;2022-07-23T19:26:41;7.35;;;6.75;;
8478;SDS011;4276;49.354;6.804;2022-07-23T19:29:08;7.45;;;6.88;;
8478;SDS011;4276;49.354;6.804;2022-07-23T19:31:34;7.60;;;6.95;;
8478;SDS011;4276;49.354;6.804;2022-07-23T19:34:01;7.68;;;7.07;;
8478;SDS011;4276;49.354;6.804;2022-07-23T19:36:28;8.18;;;7.50;;
8478;SDS011;4276;49.354;6.804;2022-07-23T19:38:54;7.45;;;6.85;;
8478;SDS011;4276;49.354;6.804;2022-07-23T19:41:21;8.18;;;7.47;;
8478;SDS011;4276;49.354;6.804;2022-07-23T19:43:48;7.45;;;6.85;;
8478;SDS011;4276;49.354;6.804;2022-07-23T19:46:14;8.73;;;7.90;;
8478;SDS011;4276;49.354;6.804;2022-07-23T19:48:41;8.40;;;7.63;;
8478;SDS011;4276;49.354;6.804;2022-07-23T19:51:08;8.18;;;7.53;;
8478;SDS011;4276;49.354;6.804;2022-07-23T19:53:34;8.68;;;7.68;;
8478;SDS011;4276;49.354;6.804;2022-07-23T19:56:01;8.05;;;7.35;;
8478;SDS011;4276;49.354;6.804;2022-07-23T19:58:28;7.90;;;7.30;;
8478;SDS011;4276;49.354;6.804;2022-07-23T20:00:54;7.93;;;7.32;;
8478;SDS011;4276;49.354;6.804;2022-07-23T20:03:21;9.18;;;8.38;;
8478;SDS011;4276;49.354;6.804;2022-07-23T20:05:47;8.15;;;7.57;;
8478;SDS011;4276;49.354;6.804;2022-07-23T20:08:14;8.65;;;7.90;;
8478;SDS011;4276;49.354;6.804;2022-07-23T20:10:43;8.45;;;7.85;;
8478;SDS011;4276;49.354;6.804;2022-07-23T20:13:10;8.32;;;7.63;;
8478;SDS011;4276;49.354;6.804;2022-07-23T20:15:38;9.57;;;8.70;;
8478;SDS011;4276;49.354;6.804;2022-07-23T20:18:05;8.82;;;8.00;;
8478;SDS011;4276;49.354;6.804;2022-07-23T20:20:31;7.88;;;7.38;;
8478;SDS011;4276;49.354;6.804;2022-07-23T20:22:58;8.05;;;7.45;;
8478;SDS011;4276;49.354;6.804;2022-07-23T20:25:24;7.53;;;6.93;;
8478;SDS011;4276;49.354;6.804;2022-07-23T20:27:51;8.18;;;7.47;;
8478;SDS011;4276;49.354;6.804;2022-07-23T20:30:18;7.85;;;7.32;;
8478;SDS011;4276;49.354;6.804;2022-07-23T20:32:45;7.78;;;7.15;;
8478;SDS011;4276;49.354;6.804;2022-07-23T20:35:12;8.05;;;7.35;;
8478;SDS011;4276;49.354;6.804;2022-07-23T20:37:39;8.70;;;7.95;;
8478;SDS011;4276;49.354;6.804;2022-07-23T20:40:05;8.73;;;7.97;;
8478;SDS011;4276;49.354;6.804;2022-07-23T20:42:34;7.70;;;7.10;;
8478;SDS011;4276;49.354;6.804;2022-07-23T20:45:01;8.63;;;7.93;;
8478;SDS011;4276;49.354;6.804;2022-07-23T20:47:27;8.38;;;7.70;;
8478;SDS011;4276;49.354;6.804;2022-07-23T20:49:54;9.10;;;8.15;;
8478;SDS011;4276;49.354;6.804;2022-07-23T20:52:22;8.40;;;7.80;;
8478;SDS011;4276;49.354;6.804;2022-07-23T20:54:49;8.25;;;7.65;;
8478;SDS011;4276;49.354;6.804;2022-07-23T20:57:16;9.48;;;8.50;;
8478;SDS011;4276;49.354;6.804;2022-07-23T20:59:43;8.68;;;7.97;;
8478;SDS011;4276;49.354;6.804;2022-07-23T21:02:12;8.55;;;7.85;;
8478;SDS011;4276;49.354;6.804;2022-07-23T21:04:39;9.18;;;8.30;;
8478;SDS011;4276;49.354;6.804;2022-07-23T21:07:11;8.70;;;7.90;;
8478;SDS011;4276;49.354;6.804;2022-07-23T21:09:43;8.98;;;8.20;;
8478;SDS011;4276;49.354;6.804;2022-07-23T21:12:10;8.43;;;7.80;;
8478;SDS011;4276;49.354;6.804;2022-07-23T21:14:41;8.18;;;7.57;;
8478;SDS011;4276;49.354;6.804;2022-07-23T21:17:07;8.40;;;7.80;;
8478;SDS011;4276;49.354;6.804;2022-07-23T21:19:34;8.60;;;7.90;;
8478;SDS011;4276;49.354;6.804;2022-07-23T21:22:00;9.10;;;8.40;;
8478;SDS011;4276;49.354;6.804;2022-07-23T21:24:27;8.50;;;7.72;;
8478;SDS011;4276;49.354;6.804;2022-07-23T21:26:54;9.05;;;8.35;;
8478;SDS011;4276;49.354;6.804;2022-07-23T21:29:20;9.82;;;8.85;;
8478;SDS011;4276;49.354;6.804;2022-07-23T21:31:52;8.70;;;7.95;;
8478;SDS011;4276;49.354;6.804;2022-07-23T21:34:20;9.18;;;8.35;;
8478;SDS011;4276;49.354;6.804;2022-07-23T21:36:48;8.35;;;7.68;;
8478;SDS011;4276;49.354;6.804;2022-07-23T21:39:14;9.15;;;8.27;;
8478;SDS011;4276;49.354;6.804;2022-07-23T21:41:41;8.38;;;7.72;;
8478;SDS011;4276;49.354;6.804;2022-07-23T21:44:08;8.80;;;8.20;;
8478;SDS011;4276;49.354;6.804;2022-07-23T21:46:35;8.63;;;7.93;;
8478;SDS011;4276;49.354;6.804;2022-07-23T21:49:03;9.45;;;8.60;;
8478;SDS011;4276;49.354;6.804;2022-07-23T21:51:31;8.52;;;7.90;;
8478;SDS011;4276;49.354;6.804;2022-07-23T21:53:58;8.65;;;7.95;;
8478;SDS011;4276;49.354;6.804;2022-07-23T21:56:25;8.60;;;7.90;;
8478;SDS011;4276;49.354;6.804;2022-07-23T21:58:52;9.18;;;8.38;;
8478;SDS011;4276;49.354;6.804;2022-07-23T22:01:19;8.63;;;7.93;;
8478;SDS011;4276;49.354;6.804;2022-07-23T22:03:45;8.65;;;7.95;;
8478;SDS011;4276;49.354;6.804;2022-07-23T22:06:12;8.98;;;8.35;;
8478;SDS011;4276;49.354;6.804;2022-07-23T22:08:38;8.55;;;7.90;;
8478;SDS011;4276;49.354;6.804;2022-07-23T22:11:05;8.50;;;7.90;;
8478;SDS011;4276;49.354;6.804;2022-07-23T22:13:31;8.88;;;8.18;;
8478;SDS011;4276;49.354;6.804;2022-07-23T22:15:58;9.07;;;8.48;;
8478;SDS011;4276;49.354;6.804;2022-07-23T22:18:25;8.60;;;7.88;;
8478;SDS011;4276;49.354;6.804;2022-07-23T22:20:52;8.95;;;8.35;;
8478;SDS011;4276;49.354;6.804;2022-07-23T22:23:20;8.68;;;8.00;;
8478;SDS011;4276;49.354;6.804;2022-07-23T22:25:46;9.25;;;8.45;;
8478;SDS011;4276;49.354;6.804;2022-07-23T22:28:13;9.50;;;8.80;;
8478;SDS011;4276;49.354;6.804;2022-07-23T22:30:39;8.80;;;8.07;;
8478;SDS011;4276;49.354;6.804;2022-07-23T22:33:06;8.82;;;8.07;;
8478;SDS011;4276;49.354;6.804;2022-07-23T22:35:34;8.73;;;8.05;;
8478;SDS011;4276;49.354;6.804;2022-07-23T22:38:01;8.63;;;7.82;;
8478;SDS011;4276;49.354;6.804;2022-07-23T22:40:27;8.88;;;8.18;;
8478;SDS011;4276;49.354;6.804;2022-07-23T22:42:54;9.05;;;8.25;;
8478;SDS011;4276;49.354;6.804;2022-07-23T22:45:20;8.55;;;7.55;;
8478;SDS011;4276;49.354;6.804;2022-07-23T22:47:47;9.50;;;8.73;;
8478;SDS011;4276;49.354;6.804;2022-07-23T22:50:14;8.80;;;8.10;;
8478;SDS011;4276;49.354;6.804;2022-07-23T22:52:41;8.75;;;7.97;;
8478;SDS011;4276;49.354;6.804;2022-07-23T22:55:08;8.68;;;8.05;;
8478;SDS011;4276;49.354;6.804;2022-07-23T22:57:35;8.18;;;7.57;;
8478;SDS011;4276;49.354;6.804;2022-07-23T23:00:02;9.02;;;8.40;;
8478;SDS011;4276;49.354;6.804;2022-07-23T23:02:30;8.63;;;8.02;;
8478;SDS011;4276;49.354;6.804;2022-07-23T23:04:56;8.57;;;7.95;;
8478;SDS011;4276;49.354;6.804;2022-07-23T23:07:23;10.23;;;9.38;;
8478;SDS011;4276;49.354;6.804;2022-07-23T23:09:49;9.30;;;8.50;;
8478;SDS011;4276;49.354;6.804;2022-07-23T23:12:16;9.07;;;8.27;;
8478;SDS011;4276;49.354;6.804;2022-07-23T23:14:43;9.68;;;8.93;;
8478;SDS011;4276;49.354;6.804;2022-07-23T23:17:09;9.75;;;9.00;;
8478;SDS011;4276;49.354;6.804;2022-07-23T23:19:37;8.95;;;8.25;;
8478;SDS011;4276;49.354;6.804;2022-07-23T23:22:04;9.07;;;8.18;;
8478;SDS011;4276;49.354;6.804;2022-07-23T23:24:30;9.48;;;8.70;;
8478;SDS011;4276;49.354;6.804;2022-07-23T23:26:57;8.88;;;8.27;;
8478;SDS011;4276;49.354;6.804;2022-07-23T23:29:23;9.27;;;8.48;;
8478;SDS011;4276;49.354;6.804;2022-07-23T23:31:50;8.63;;;7.93;;
8478;SDS011;4276;49.354;6.804;2022-07-23T23:34:16;9.32;;;8.63;;
8478;SDS011;4276;49.354;6.804;2022-07-23T23:36:43;9.45;;;8.75;;
8478;SDS011;4276;49.354;6.804;2022-07-23T23:39:10;9.40;;;8.70;;
8478;SDS011;4276;49.354;6.804;2022-07-23T23:41:36;9.07;;;8.38;;
8478;SDS011;4276;49.354;6.804;2022-07-23T23:44:03;9.45;;;8.65;;
8478;SDS011;4276;49.354;6.804;2022-07-23T23:46:30;10.43;;;9.30;;
8478;SDS011;4276;49.354;6.804;2022-07-23T23:48:56;10.02;;;9.20;;
8478;SDS011;4276;49.354;6.804;2022-07-23T23:51:23;9.77;;;8.98;;
8478;SDS011;4276;49.354;6.804;2022-07-23T23:53:50;9.43;;;8.65;;
8478;SDS011;4276;49.354;6.804;2022-07-23T23:56:16;9.57;;;8.77;;
8478;SDS011;4276;49.354;6.804;2022-07-23T23:58:43;9.73;;;9.02;;
